createdAt,value
2018-11-23T00:00:34.448Z,97.00
2018-11-23T00:03:02.296Z,96.60
2018-11-23T00:05:29.972Z,96.80
2018-11-23T00:07:58.257Z,96.80
2018-11-23T00:10:27.247Z,96.40
2018-11-23T00:12:54.916Z,96.50
2018-11-23T00:15:23.399Z,96.60
2018-11-23T00:17:51.024Z,96.50
2018-11-23T00:20:20.812Z,96.10
2018-11-23T00:22:48.472Z,96.70
2018-11-23T00:25:17.270Z,96.70
2018-11-23T00:27:44.980Z,96.80
2018-11-23T00:30:14.090Z,96.50
2018-11-23T00:32:41.972Z,96.60
2018-11-23T00:35:11.624Z,96.60
2018-11-23T00:37:39.272Z,96.60
2018-11-23T00:40:09.109Z,96.70
2018-11-23T00:42:36.807Z,96.10
2018-11-23T00:45:06.369Z,96.70
2018-11-23T00:47:33.988Z,96.90
2018-11-23T00:50:01.817Z,97.10
2018-11-23T00:52:29.436Z,96.90
2018-11-23T00:54:57.056Z,97.10
2018-11-23T00:57:24.672Z,97.00
2018-11-23T00:59:52.356Z,97.00
2018-11-23T01:02:19.948Z,96.50
2018-11-23T01:04:47.581Z,96.90
2018-11-23T01:07:15.188Z,97.00
2018-11-23T01:09:42.813Z,96.80
2018-11-23T01:12:10.463Z,96.70
2018-11-23T01:14:38.236Z,97.00
2018-11-23T01:17:05.820Z,97.10
2018-11-23T01:19:33.509Z,97.00
2018-11-23T01:22:01.113Z,96.90
2018-11-23T01:24:28.821Z,96.70
2018-11-23T01:26:56.472Z,96.70
2018-11-23T01:29:24.108Z,96.70
2018-11-23T01:31:51.688Z,96.50
2018-11-23T01:34:19.275Z,96.80
2018-11-23T01:36:46.957Z,97.50
2018-11-23T01:39:14.608Z,97.90
2018-11-23T01:41:42.254Z,97.20
2018-11-23T01:44:09.884Z,98.00
2018-11-23T01:46:37.704Z,98.10
2018-11-23T01:49:05.399Z,97.70
2018-11-23T01:51:33.094Z,98.00
2018-11-23T01:54:00.788Z,98.00
2018-11-23T01:56:28.492Z,97.90
2018-11-23T01:58:56.180Z,97.90
2018-11-23T02:01:23.960Z,97.60
2018-11-23T02:03:51.556Z,97.40
2018-11-23T02:06:19.263Z,97.50
2018-11-23T02:08:47.032Z,97.40
2018-11-23T02:11:14.680Z,97.60
2018-11-23T02:13:42.308Z,97.30
2018-11-23T02:16:09.948Z,97.80
2018-11-23T02:18:37.528Z,97.70
2018-11-23T02:21:05.345Z,97.90
2018-11-23T02:23:32.957Z,98.00
2018-11-23T02:26:00.612Z,97.70
2018-11-23T02:28:28.270Z,97.90
2018-11-23T02:30:55.924Z,98.00
2018-11-23T02:33:23.625Z,97.50
2018-11-23T02:35:51.297Z,97.40
2018-11-23T02:38:19.019Z,98.00
2018-11-23T02:40:46.636Z,97.60
2018-11-23T02:43:14.252Z,98.10
2018-11-23T02:45:41.946Z,98.40
2018-11-23T02:48:09.605Z,98.40
2018-11-23T02:50:37.233Z,98.70
2018-11-23T02:53:04.812Z,97.90
2018-11-23T02:55:32.604Z,98.10
2018-11-23T02:58:00.228Z,98.40
2018-11-23T03:00:27.883Z,98.20
2018-11-23T03:02:55.522Z,98.10
2018-11-23T03:05:23.546Z,97.20
2018-11-23T03:07:51.202Z,97.80
2018-11-23T03:10:18.999Z,97.70
2018-11-23T03:12:47.355Z,97.70
2018-11-23T03:15:16.392Z,97.70
2018-11-23T03:17:44.607Z,97.90
2018-11-23T03:20:17.924Z,98.20
2018-11-23T03:22:45.720Z,98.30
2018-11-23T03:25:13.741Z,98.10
2018-11-23T03:27:41.428Z,97.80
2018-11-23T03:30:14.762Z,98.00
2018-11-23T03:32:42.740Z,98.00
2018-11-23T03:35:10.413Z,97.80
2018-11-23T03:37:38.321Z,97.80
2018-11-23T03:40:06.096Z,97.80
2018-11-23T03:42:33.776Z,97.90
2018-11-23T03:45:01.602Z,97.40
2018-11-23T03:47:29.294Z,97.70
2018-11-23T03:49:56.945Z,97.80
2018-11-23T03:52:24.674Z,97.20
2018-11-23T03:54:52.301Z,96.80
2018-11-23T03:57:19.912Z,97.30
2018-11-23T03:59:47.584Z,97.10
2018-11-23T04:02:15.236Z,97.10
2018-11-23T04:04:42.873Z,97.10
2018-11-23T04:07:10.524Z,97.10
2018-11-23T04:09:38.171Z,97.20
2018-11-23T04:12:05.878Z,96.80
2018-11-23T04:14:33.518Z,97.50
2018-11-23T04:17:01.167Z,97.10
2018-11-23T04:19:28.805Z,97.30
2018-11-23T04:21:56.457Z,97.00
2018-11-23T04:24:24.099Z,97.20
2018-11-23T04:26:51.728Z,97.50
2018-11-23T04:29:19.388Z,97.60
2018-11-23T04:31:47.034Z,97.60
2018-11-23T04:34:14.705Z,97.60
2018-11-23T04:36:42.326Z,97.70
2018-11-23T04:39:10.006Z,97.70
2018-11-23T04:41:37.788Z,97.70
2018-11-23T04:44:06.412Z,97.40
2018-11-23T04:46:34.024Z,97.90
2018-11-23T04:49:01.636Z,97.60
2018-11-23T04:51:29.318Z,98.10
2018-11-23T04:53:56.897Z,97.90
2018-11-23T04:56:24.628Z,97.60
2018-11-23T04:58:52.258Z,97.60
2018-11-23T05:01:19.921Z,97.60
2018-11-23T05:03:47.568Z,97.60
2018-11-23T05:06:15.164Z,97.30
2018-11-23T05:08:42.803Z,97.30
2018-11-23T05:11:10.469Z,96.90
2018-11-23T05:13:38.128Z,97.30
2018-11-23T05:16:05.830Z,97.20
2018-11-23T05:18:33.415Z,97.20
2018-11-23T05:21:00.988Z,97.50
2018-11-23T05:23:28.600Z,97.60
2018-11-23T05:25:56.236Z,97.70
2018-11-23T05:28:23.930Z,97.90
2018-11-23T05:30:51.536Z,97.70
2018-11-23T05:33:19.809Z,97.80
2018-11-23T05:35:47.435Z,97.60
2018-11-23T05:38:15.038Z,97.60
2018-11-23T05:40:42.632Z,97.60
2018-11-23T05:43:10.227Z,97.50
2018-11-23T05:45:37.869Z,97.60
2018-11-23T05:48:05.544Z,97.70
2018-11-23T05:50:33.159Z,97.60
2018-11-23T05:53:00.799Z,97.80
2018-11-23T05:55:28.383Z,98.10
2018-11-23T05:57:56.068Z,98.10
2018-11-23T06:00:25.224Z,98.20
2018-11-23T06:02:52.832Z,98.30
2018-11-23T06:05:20.482Z,98.40
2018-11-23T06:07:48.151Z,98.40
2018-11-23T06:10:16.924Z,98.40
2018-11-23T06:12:44.700Z,98.30
2018-11-23T06:15:14.640Z,98.30
2018-11-23T06:17:42.694Z,98.00
2018-11-23T06:20:12.725Z,98.20
2018-11-23T06:22:40.612Z,97.90
2018-11-23T06:25:12.558Z,98.40
2018-11-23T06:27:40.248Z,98.30
2018-11-23T06:30:09.505Z,98.30
2018-11-23T06:32:48.620Z,98.20
2018-11-23T06:35:16.302Z,98.10
2018-11-23T06:37:44.060Z,98.00
2018-11-23T06:40:11.865Z,97.90
2018-11-23T06:42:42.251Z,98.00
2018-11-23T06:45:07.904Z,97.80
2018-11-23T06:47:35.545Z,97.90
2018-11-23T06:50:03.248Z,97.30
2018-11-23T06:52:30.943Z,97.70
2018-11-23T06:54:58.616Z,97.60
2018-11-23T06:57:26.273Z,97.00
2018-11-23T06:59:54.001Z,97.80
2018-11-23T07:02:21.766Z,97.90
2018-11-23T07:04:49.537Z,98.00
2018-11-23T07:07:17.236Z,98.00
2018-11-23T07:09:44.901Z,97.70
2018-11-23T07:12:12.528Z,97.90
2018-11-23T07:14:40.324Z,97.90
2018-11-23T07:17:07.988Z,97.50
2018-11-23T07:19:35.604Z,97.30
2018-11-23T07:22:03.256Z,97.40
2018-11-23T07:24:30.895Z,97.30
2018-11-23T07:26:58.478Z,97.00
2018-11-23T07:29:26.075Z,96.70
2018-11-23T07:31:53.742Z,96.90
2018-11-23T07:34:21.390Z,96.30
2018-11-23T07:36:49.057Z,96.60
2018-11-23T07:41:31.783Z,96.60
2018-11-23T07:43:59.398Z,96.70
2018-11-23T07:46:26.988Z,96.70
2018-11-23T07:48:54.640Z,96.60
2018-11-23T07:51:22.430Z,95.60
2018-11-23T07:53:50.128Z,93.30
2018-11-23T07:56:17.728Z,90.30
2018-11-23T07:58:45.338Z,85.50
2018-11-23T08:01:13.168Z,82.50
2018-11-23T08:03:40.801Z,80.20
2018-11-23T08:06:08.389Z,77.20
2018-11-23T08:08:36.004Z,73.50
2018-11-23T08:11:06.569Z,71.10
2018-11-23T08:13:34.222Z,69.50
2018-11-23T08:16:01.877Z,67.20
2018-11-23T08:18:29.484Z,64.70
2018-11-23T08:20:57.210Z,65.10
2018-11-23T08:23:24.834Z,63.80
2018-11-23T08:25:52.487Z,62.00
2018-11-23T08:28:20.156Z,59.60
2018-11-23T08:30:47.748Z,57.90
2018-11-23T08:33:15.512Z,57.60
2018-11-23T08:35:43.082Z,57.40
2018-11-23T08:38:10.742Z,56.60
2018-11-23T08:40:38.422Z,54.80
2018-11-23T08:43:06.096Z,54.50
2018-11-23T08:45:33.738Z,54.50
2018-11-23T08:48:01.396Z,53.50
2018-11-23T08:50:29.975Z,53.20
2018-11-23T08:52:57.757Z,50.70
2018-11-23T08:55:25.872Z,52.30
2018-11-23T08:57:53.669Z,53.70
2018-11-23T09:00:23.351Z,53.50
2018-11-23T09:02:52.351Z,53.10
2018-11-23T09:05:20.073Z,53.40
2018-11-23T09:07:48.801Z,52.80
2018-11-23T09:10:18.065Z,53.60
2018-11-23T09:12:47.467Z,53.60
2018-11-23T09:15:15.408Z,55.30
2018-11-23T09:17:43.829Z,54.00
2018-11-23T09:20:12.276Z,51.30
2018-11-23T09:22:40.013Z,49.00
2018-11-23T09:25:10.153Z,47.10
2018-11-23T09:27:37.873Z,48.30
2018-11-23T09:30:10.028Z,47.40
2018-11-23T09:32:37.637Z,45.70
2018-11-23T09:35:06.368Z,45.70
2018-11-23T09:37:33.986Z,45.00
2018-11-23T09:40:01.696Z,45.40
2018-11-23T09:42:29.391Z,45.50
2018-11-23T09:44:57.156Z,44.70
2018-11-23T09:47:24.756Z,44.70
2018-11-23T09:49:52.402Z,45.50
2018-11-23T09:52:19.989Z,45.80
2018-11-23T09:54:47.644Z,46.20
2018-11-23T09:57:15.340Z,47.60
2018-11-23T09:59:43.014Z,51.30
2018-11-23T10:02:10.665Z,55.10
2018-11-23T10:04:38.310Z,60.00
2018-11-23T10:07:06.036Z,64.10
2018-11-23T10:09:33.696Z,67.90
2018-11-23T10:12:01.364Z,71.80
2018-11-23T10:14:28.947Z,73.40
2018-11-23T10:16:56.595Z,75.20
2018-11-23T10:19:29.186Z,77.50
2018-11-23T10:21:56.839Z,78.30
2018-11-23T10:24:24.502Z,80.50
2018-11-23T10:26:52.120Z,81.20
2018-11-23T10:29:19.792Z,81.60
2018-11-23T10:31:47.519Z,83.30
2018-11-23T10:34:15.424Z,83.80
2018-11-23T10:36:43.116Z,83.90
2018-11-23T10:39:10.764Z,84.50
2018-11-23T10:41:38.409Z,84.10
2018-11-23T10:44:06.057Z,85.20
2018-11-23T10:46:33.728Z,84.40
2018-11-23T10:49:01.280Z,83.90
2018-11-23T10:51:28.946Z,83.80
2018-11-23T10:53:56.576Z,83.30
2018-11-23T10:56:24.259Z,83.80
2018-11-23T10:58:51.949Z,83.70
2018-11-23T11:01:25.219Z,83.00
2018-11-23T11:03:58.480Z,82.90
2018-11-23T11:07:01.543Z,82.90
2018-11-23T11:09:29.123Z,81.90
2018-11-23T11:11:56.777Z,82.60
2018-11-23T11:14:24.416Z,82.10
2018-11-23T11:16:52.033Z,82.40
2018-11-23T11:19:19.620Z,82.20
2018-11-23T11:21:47.268Z,83.30
2018-11-23T11:24:14.904Z,83.30
2018-11-23T11:26:42.508Z,81.80
2018-11-23T11:29:10.064Z,81.80
2018-11-23T11:31:37.636Z,82.10
2018-11-23T11:34:05.360Z,81.40
2018-11-23T11:36:33.029Z,80.20
2018-11-23T11:39:00.689Z,81.10
2018-11-23T11:41:28.349Z,81.80
2018-11-23T11:43:55.964Z,81.00
2018-11-23T11:46:23.611Z,80.40
2018-11-23T11:48:51.254Z,80.00
2018-11-23T11:51:18.857Z,80.30
2018-11-23T11:53:46.488Z,78.40
2018-11-23T11:56:14.141Z,78.20
2018-11-23T11:58:41.844Z,77.20
2018-11-23T12:01:09.524Z,76.90
2018-11-23T12:03:37.152Z,72.00
2018-11-23T12:06:04.873Z,66.20
2018-11-23T12:08:32.542Z,59.70
2018-11-23T12:11:00.544Z,55.80
2018-11-23T12:13:28.184Z,53.30
2018-11-23T12:15:55.784Z,51.40
2018-11-23T12:18:23.466Z,49.50
2018-11-23T12:20:51.141Z,48.80
2018-11-23T12:23:18.788Z,48.00
2018-11-23T12:25:46.443Z,47.70
2018-11-23T12:28:14.264Z,47.40
2018-11-23T12:30:41.916Z,47.00
2018-11-23T12:33:09.623Z,47.20
2018-11-23T12:35:37.264Z,47.40
2018-11-23T12:38:05.157Z,47.50
2018-11-23T12:40:32.748Z,47.80
2018-11-23T12:43:00.432Z,47.80
2018-11-23T12:45:28.099Z,48.10
2018-11-23T12:47:55.689Z,47.70
2018-11-23T12:50:23.659Z,46.60
2018-11-23T12:52:51.396Z,46.50
2018-11-23T12:55:19.520Z,46.20
2018-11-23T12:57:47.175Z,45.90
2018-11-23T13:00:21.346Z,45.90
2018-11-23T13:02:51.188Z,46.70
2018-11-23T13:05:19.367Z,46.20
2018-11-23T13:07:46.951Z,46.20
2018-11-23T13:10:14.533Z,46.80
2018-11-23T13:12:42.214Z,48.40
2018-11-23T13:15:09.894Z,50.10
2018-11-23T13:17:37.475Z,52.00
2018-11-23T13:20:08.452Z,52.90
2018-11-23T13:22:36.537Z,54.00
2018-11-23T13:25:06.217Z,54.40
2018-11-23T13:27:33.941Z,54.60
2018-11-23T13:30:01.540Z,55.20
2018-11-23T13:32:29.204Z,54.20
2018-11-23T13:34:56.884Z,54.60
2018-11-23T13:37:24.565Z,54.90
2018-11-23T13:39:52.222Z,55.10
2018-11-23T13:42:19.891Z,54.80
2018-11-23T13:44:47.501Z,54.30
2018-11-23T13:47:15.121Z,53.80
2018-11-23T13:49:42.716Z,54.10
2018-11-23T13:52:10.400Z,53.90
2018-11-23T13:54:38.000Z,56.00
2018-11-23T13:57:05.652Z,57.40
2018-11-23T13:59:33.328Z,58.50
2018-11-23T14:02:00.968Z,61.60
2018-11-23T14:04:28.644Z,62.90
2018-11-23T14:06:56.303Z,65.80
2018-11-23T14:09:23.931Z,67.30
2018-11-23T14:11:51.555Z,68.30
2018-11-23T14:14:19.229Z,68.40
2018-11-23T14:16:46.936Z,69.40
2018-11-23T14:19:14.592Z,73.30
2018-11-23T14:21:42.289Z,75.00
2018-11-23T14:24:09.937Z,78.50
2018-11-23T14:26:37.580Z,81.40
2018-11-23T14:29:05.584Z,81.70
2018-11-23T14:31:33.324Z,81.30
2018-11-23T14:34:00.939Z,82.20
2018-11-23T14:36:28.643Z,81.90
2018-11-23T14:38:56.316Z,82.30
2018-11-23T14:41:23.988Z,82.90
2018-11-23T14:43:51.640Z,84.10
2018-11-23T14:46:19.289Z,84.60
2018-11-23T14:48:46.931Z,85.60
2018-11-23T14:51:14.626Z,87.40
2018-11-23T14:53:42.305Z,87.40
2018-11-23T14:56:10.066Z,87.90
2018-11-23T14:58:37.756Z,89.20
2018-11-23T15:01:05.636Z,89.10
2018-11-23T15:03:33.323Z,88.40
2018-11-23T15:06:00.861Z,89.40
2018-11-23T15:08:28.537Z,89.50
2018-11-23T15:10:56.116Z,90.00
2018-11-23T15:13:23.821Z,90.00
2018-11-23T15:15:51.861Z,90.50
2018-11-23T15:18:19.209Z,90.60
2018-11-23T15:20:46.793Z,90.50
2018-11-23T15:23:16.932Z,90.70
2018-11-23T15:25:44.605Z,91.00
2018-11-23T15:28:12.670Z,91.10
2018-11-23T15:30:40.923Z,91.10
2018-11-23T15:33:09.821Z,91.60
2018-11-23T15:35:38.037Z,91.40
2018-11-23T15:38:10.241Z,91.60
2018-11-23T15:40:34.778Z,91.60
2018-11-23T15:43:04.072Z,91.60
2018-11-23T15:45:32.544Z,91.80
2018-11-23T15:48:00.576Z,91.40
2018-11-23T15:50:29.824Z,91.80
2018-11-23T15:52:57.489Z,91.70
2018-11-23T15:55:27.409Z,91.50
2018-11-23T15:57:56.600Z,91.80
2018-11-23T16:00:26.007Z,92.70
2018-11-23T16:02:53.952Z,92.50
2018-11-23T16:05:21.805Z,92.00
2018-11-23T16:07:50.085Z,92.10
2018-11-23T16:10:19.901Z,92.40
2018-11-23T16:12:48.660Z,92.70
2018-11-23T16:15:16.862Z,92.10
2018-11-23T16:17:44.587Z,92.20
2018-11-23T16:20:15.772Z,92.90
2018-11-23T16:22:46.085Z,92.70
2018-11-23T16:25:13.784Z,92.80
2018-11-23T16:27:42.191Z,92.50
2018-11-23T16:30:17.672Z,92.40
2018-11-23T16:32:46.496Z,92.40
2018-11-23T16:35:15.865Z,92.70
2018-11-23T16:37:43.668Z,93.00
2018-11-23T16:40:13.288Z,93.20
2018-11-23T16:42:40.936Z,92.90
2018-11-23T16:45:12.547Z,93.00
2018-11-23T16:47:40.208Z,93.40
2018-11-23T16:50:08.186Z,93.30
2018-11-23T16:52:35.907Z,93.80
2018-11-23T16:55:04.204Z,93.60
2018-11-23T16:57:31.768Z,93.30
2018-11-23T16:59:59.416Z,94.20
2018-11-23T17:02:27.041Z,94.10
2018-11-23T17:04:54.918Z,94.20
2018-11-23T17:07:22.944Z,94.00
2018-11-23T17:09:50.885Z,94.00
2018-11-23T17:12:18.604Z,93.90
2018-11-23T17:14:46.264Z,93.50
2018-11-23T17:17:14.008Z,93.90
2018-11-23T17:19:41.748Z,93.50
2018-11-23T17:22:09.689Z,94.00
2018-11-23T17:24:37.486Z,93.80
2018-11-23T17:27:05.364Z,93.70
2018-11-23T17:29:34.056Z,93.80
2018-11-23T17:32:00.924Z,93.80
2018-11-23T17:34:28.697Z,95.00
2018-11-23T17:36:56.408Z,95.10
2018-11-23T17:39:24.098Z,94.70
2018-11-23T17:41:51.767Z,95.10
2018-11-23T17:44:19.546Z,95.00
2018-11-23T17:46:47.168Z,95.40
2018-11-23T17:49:14.913Z,95.60
2018-11-23T17:51:42.741Z,95.70
2018-11-23T17:54:10.348Z,95.90
2018-11-23T17:56:38.010Z,95.70
2018-11-23T17:59:05.637Z,94.90
2018-11-23T18:01:33.248Z,94.90
2018-11-23T18:04:00.884Z,95.30
2018-11-23T18:06:28.621Z,95.60
2018-11-23T18:08:56.325Z,95.50
2018-11-23T18:11:24.268Z,96.20
2018-11-23T18:13:52.535Z,95.80
2018-11-23T18:16:20.206Z,95.00
2018-11-23T18:18:47.960Z,94.90
2018-11-23T18:21:15.617Z,94.90
2018-11-23T18:23:43.292Z,95.10
2018-11-23T18:26:10.916Z,95.20
2018-11-23T18:28:38.518Z,95.40
2018-11-23T18:31:06.304Z,95.70
2018-11-23T18:33:34.066Z,95.90
2018-11-23T18:36:01.765Z,95.10
2018-11-23T18:38:29.448Z,95.40
2018-11-23T18:40:57.075Z,96.00
2018-11-23T18:43:25.792Z,96.00
2018-11-23T18:45:53.549Z,96.10
2018-11-23T18:48:21.155Z,95.60
2018-11-23T18:50:48.792Z,96.30
2018-11-23T18:53:16.500Z,96.30
2018-11-23T18:55:44.156Z,95.40
2018-11-23T18:58:11.776Z,95.50
2018-11-23T19:00:39.479Z,96.20
2018-11-23T19:03:07.149Z,95.40
2018-11-23T19:05:34.892Z,96.00
2018-11-23T19:08:02.566Z,96.00
2018-11-23T19:10:30.201Z,95.90
2018-11-23T19:12:57.939Z,95.50
2018-11-23T19:15:25.979Z,95.80
2018-11-23T19:17:53.418Z,96.00
2018-11-23T19:20:21.912Z,96.00
2018-11-23T19:22:50.597Z,96.30
2018-11-23T19:25:18.416Z,96.50
2018-11-23T19:27:46.465Z,96.50
2018-11-23T19:30:15.424Z,95.90
2018-11-23T19:32:43.462Z,96.70
2018-11-23T19:35:11.104Z,96.40
2018-11-23T19:37:38.749Z,96.20
2018-11-23T19:40:08.133Z,95.90
2018-11-23T19:42:37.103Z,95.80
2018-11-23T19:45:06.630Z,95.10
2018-11-23T19:47:34.268Z,95.50
2018-11-23T19:50:01.940Z,95.70
2018-11-23T19:52:29.688Z,95.00
2018-11-23T19:54:57.323Z,94.90
2018-11-23T19:57:25.020Z,95.30
2018-11-23T19:59:52.751Z,94.90
2018-11-23T20:02:20.448Z,95.40
2018-11-23T20:04:48.312Z,94.60
2018-11-23T20:07:16.000Z,94.70
2018-11-23T20:09:43.644Z,95.20
2018-11-23T20:12:11.295Z,95.20
2018-11-23T20:14:38.899Z,95.20
2018-11-23T20:17:06.562Z,95.10
2018-11-23T20:19:34.180Z,94.90
2018-11-23T20:22:01.830Z,95.10
2018-11-23T20:24:29.468Z,94.70
2018-11-23T20:26:57.124Z,95.30
2018-11-23T20:29:24.804Z,94.80
2018-11-23T20:31:52.608Z,95.40
2018-11-23T20:34:20.239Z,95.00
2018-11-23T20:36:47.993Z,94.90
2018-11-23T20:39:15.727Z,94.80
2018-11-23T20:41:43.353Z,94.70
2018-11-23T20:44:11.008Z,95.60
2018-11-23T20:46:38.620Z,95.50
2018-11-23T20:49:06.188Z,95.30
2018-11-23T20:51:33.968Z,95.40
2018-11-23T20:54:01.628Z,94.90
2018-11-23T20:56:29.272Z,94.90
2018-11-23T20:58:56.920Z,95.30
2018-11-23T21:01:24.497Z,94.70
2018-11-23T21:03:52.262Z,95.30
2018-11-23T21:06:19.892Z,95.30
2018-11-23T21:08:47.500Z,95.40
2018-11-23T21:11:15.056Z,95.30
2018-11-23T21:13:42.752Z,95.40
2018-11-23T21:16:10.433Z,95.50
2018-11-23T21:18:38.053Z,95.70
2018-11-23T21:21:05.772Z,95.60
2018-11-23T21:23:33.424Z,95.60
2018-11-23T21:26:01.217Z,95.30
2018-11-23T21:28:29.071Z,95.60
2018-11-23T21:30:56.724Z,95.40
2018-11-23T21:33:24.333Z,95.40
2018-11-23T21:35:52.109Z,95.40
2018-11-23T21:38:19.933Z,95.40
2018-11-23T21:40:47.665Z,95.20
2018-11-23T21:43:15.476Z,95.50
2018-11-23T21:45:43.175Z,94.80
2018-11-23T21:48:10.895Z,95.50
2018-11-23T21:50:38.606Z,95.40
2018-11-23T21:53:06.320Z,95.80
2018-11-23T21:55:34.044Z,95.30
2018-11-23T21:58:01.770Z,95.10
2018-11-23T22:00:29.392Z,95.30
2018-11-23T22:02:57.052Z,95.60
2018-11-23T22:05:24.702Z,95.10
2018-11-23T22:07:52.407Z,94.90
2018-11-23T22:10:20.253Z,95.80
2018-11-23T22:12:47.909Z,95.10
2018-11-23T22:15:17.685Z,95.70
2018-11-23T22:17:45.991Z,95.20
2018-11-23T22:20:14.671Z,95.70
2018-11-23T22:22:42.364Z,95.70
2018-11-23T22:25:11.444Z,95.80
2018-11-23T22:27:39.202Z,95.90
2018-11-23T22:30:22.939Z,95.90
2018-11-23T22:32:50.700Z,96.00
2018-11-23T22:35:18.439Z,95.30
2018-11-23T22:37:46.352Z,95.20
2018-11-23T22:40:16.083Z,95.90
2018-11-23T22:42:44.740Z,95.90
2018-11-23T22:45:13.121Z,96.20
2018-11-23T22:47:40.744Z,96.20
2018-11-23T22:50:11.421Z,96.20
2018-11-23T22:52:39.148Z,96.30
2018-11-23T22:55:08.395Z,96.50
2018-11-23T22:57:36.176Z,96.10
2018-11-23T23:00:09.420Z,96.00
2018-11-23T23:02:37.093Z,96.10
2018-11-23T23:05:05.348Z,96.30
2018-11-23T23:07:32.969Z,95.70
2018-11-23T23:10:00.661Z,96.10
2018-11-23T23:12:28.347Z,95.80
2018-11-23T23:14:55.944Z,96.40
2018-11-23T23:17:23.564Z,96.80
2018-11-23T23:19:51.220Z,96.90
2018-11-23T23:22:19.008Z,96.80
2018-11-23T23:24:46.684Z,96.60
2018-11-23T23:27:14.329Z,96.20
2018-11-23T23:29:41.940Z,96.50
2018-11-23T23:32:09.619Z,96.20
2018-11-23T23:34:37.252Z,96.30
2018-11-23T23:37:04.904Z,96.30
2018-11-23T23:39:32.564Z,96.10
2018-11-23T23:42:00.160Z,96.70
2018-11-23T23:44:27.793Z,96.80
2018-11-23T23:46:55.453Z,96.70
2018-11-23T23:49:23.056Z,96.50
2018-11-23T23:51:50.701Z,96.40
2018-11-23T23:54:18.388Z,95.90
2018-11-23T23:56:46.008Z,96.50
2018-11-23T23:59:13.645Z,96.10
